createdAt,value
2022-08-24T00:02:02.061Z,16.22
2022-08-24T00:04:32.280Z,16.21
2022-08-24T00:07:01.485Z,16.22
2022-08-24T00:09:32.524Z,16.20
2022-08-24T00:12:00.058Z,16.20
2022-08-24T00:14:27.688Z,16.17
2022-08-24T00:16:55.164Z,16.17
2022-08-24T00:19:22.340Z,16.16
2022-08-24T00:21:49.475Z,16.15
2022-08-24T00:24:16.640Z,16.14
2022-08-24T00:26:43.864Z,16.13
2022-08-24T00:29:11.063Z,16.09
2022-08-24T00:31:38.481Z,16.05
2022-08-24T00:34:05.650Z,16.04
2022-08-24T00:36:35.145Z,16.02
2022-08-24T00:39:04.468Z,16.03
2022-08-24T00:41:31.609Z,15.98
2022-08-24T00:44:05.018Z,15.95
2022-08-24T00:46:57.194Z,15.93
2022-08-24T00:49:47.019Z,15.91
2022-08-24T00:52:33.518Z,15.88
2022-08-24T00:55:17.466Z,15.85
2022-08-24T00:57:52.580Z,15.77
2022-08-24T01:00:34.968Z,15.71
2022-08-24T01:03:08.301Z,15.61
2022-08-24T01:05:39.773Z,15.60
2022-08-24T01:08:11.366Z,15.62
2022-08-24T01:10:56.866Z,15.64
2022-08-24T01:13:26.651Z,15.61
2022-08-24T01:16:03.587Z,15.60
2022-08-24T01:18:50.041Z,15.62
2022-08-24T01:21:45.185Z,15.65
2022-08-24T01:24:15.019Z,15.61
2022-08-24T01:26:51.212Z,15.60
2022-08-24T01:29:26.883Z,15.61
2022-08-24T01:31:55.121Z,15.62
2022-08-24T01:34:22.276Z,15.59
2022-08-24T01:36:56.314Z,15.58
2022-08-24T01:39:37.582Z,15.60
2022-08-24T01:42:06.567Z,15.61
2022-08-24T01:44:37.919Z,15.60
2022-08-24T01:47:10.086Z,15.58
2022-08-24T01:49:45.655Z,15.51
2022-08-24T01:52:22.667Z,15.50
2022-08-24T01:54:50.123Z,15.48
2022-08-24T01:57:20.482Z,15.44
2022-08-24T01:59:50.167Z,15.40
2022-08-24T02:02:29.848Z,15.38
2022-08-24T02:04:57.004Z,15.34
2022-08-24T02:07:24.762Z,15.31
2022-08-24T02:09:52.651Z,15.31
2022-08-24T02:12:22.646Z,15.32
2022-08-24T02:14:49.681Z,15.29
2022-08-24T02:17:18.096Z,15.26
2022-08-24T02:19:46.273Z,15.27
2022-08-24T02:22:13.352Z,15.27
2022-08-24T02:24:40.694Z,15.29
2022-08-24T02:27:08.403Z,15.28
2022-08-24T02:29:35.972Z,15.27
2022-08-24T02:32:03.659Z,15.26
2022-08-24T02:34:30.898Z,15.23
2022-08-24T02:36:58.039Z,15.21
2022-08-24T02:39:25.035Z,15.30
2022-08-24T02:41:53.060Z,15.56
2022-08-24T02:44:20.947Z,15.68
2022-08-24T02:46:48.596Z,15.76
2022-08-24T02:49:16.017Z,15.82
2022-08-24T02:51:47.401Z,15.88
2022-08-24T02:54:18.383Z,15.96
2022-08-24T02:56:47.380Z,16.01
2022-08-24T02:59:16.333Z,16.07
2022-08-24T03:01:45.051Z,16.14
2022-08-24T03:04:12.657Z,16.16
2022-08-24T03:06:40.979Z,16.20
2022-08-24T03:09:08.844Z,16.23
2022-08-24T03:11:36.168Z,16.25
2022-08-24T03:14:04.753Z,16.29
2022-08-24T03:16:32.369Z,16.33
2022-08-24T03:19:00.002Z,16.32
2022-08-24T03:21:28.008Z,16.35
2022-08-24T03:23:54.977Z,16.38
2022-08-24T03:26:23.141Z,16.43
2022-08-24T03:28:51.222Z,16.45
2022-08-24T03:31:19.498Z,16.49
2022-08-24T03:33:46.997Z,16.51
2022-08-24T03:36:14.643Z,16.54
2022-08-24T03:38:43.080Z,16.58
2022-08-24T03:41:11.638Z,16.56
2022-08-24T03:43:47.203Z,16.58
2022-08-24T03:46:27.358Z,16.59
2022-08-24T03:48:57.611Z,16.61
2022-08-24T03:51:28.881Z,16.62
2022-08-24T03:53:59.723Z,16.63
2022-08-24T03:56:27.883Z,16.63
2022-08-24T03:58:56.312Z,16.63
2022-08-24T04:01:24.083Z,16.63
2022-08-24T04:03:54.305Z,16.63
2022-08-24T04:06:23.442Z,16.64
2022-08-24T04:08:53.275Z,16.62
2022-08-24T04:11:28.099Z,16.60
2022-08-24T04:13:58.871Z,16.59
2022-08-24T04:16:29.547Z,16.59
2022-08-24T04:19:00.356Z,16.60
2022-08-24T04:21:35.380Z,16.60
2022-08-24T04:24:07.843Z,16.58
2022-08-24T04:26:44.721Z,16.61
2022-08-24T04:29:16.712Z,16.62
2022-08-24T04:31:44.798Z,16.61
2022-08-24T04:34:16.570Z,16.63
2022-08-24T04:36:45.777Z,16.68
2022-08-24T04:39:13.747Z,16.71
2022-08-24T04:41:42.696Z,16.68
2022-08-24T04:44:10.170Z,16.65
2022-08-24T04:46:37.445Z,16.62
2022-08-24T04:49:04.668Z,16.60
2022-08-24T04:51:36.385Z,16.57
2022-08-24T04:54:06.478Z,16.54
2022-08-24T04:56:33.588Z,16.48
2022-08-24T04:59:02.453Z,16.47
2022-08-24T05:01:33.853Z,16.54
2022-08-24T05:04:02.901Z,16.62
2022-08-24T05:06:33.973Z,16.59
2022-08-24T05:09:05.013Z,16.66
2022-08-24T05:11:32.232Z,16.65
2022-08-24T05:13:59.724Z,16.65
2022-08-24T05:16:28.109Z,16.81
2022-08-24T05:18:57.663Z,16.89
2022-08-24T05:21:26.082Z,16.96
2022-08-24T05:23:53.196Z,17.03
2022-08-24T05:26:26.749Z,17.04
2022-08-24T05:29:02.036Z,17.09
2022-08-24T05:31:33.504Z,17.21
2022-08-24T05:34:03.996Z,17.24
2022-08-24T05:36:38.189Z,17.24
2022-08-24T05:39:12.225Z,17.27
2022-08-24T05:41:44.291Z,17.34
2022-08-24T05:44:16.088Z,17.37
2022-08-24T05:46:44.711Z,17.39
2022-08-24T05:49:12.850Z,17.33
2022-08-24T05:51:42.826Z,17.30
2022-08-24T05:54:13.708Z,17.29
2022-08-24T05:56:41.650Z,17.28
2022-08-24T05:59:08.596Z,17.38
2022-08-24T06:01:35.782Z,17.50
2022-08-24T06:04:03.287Z,17.53
2022-08-24T06:06:31.690Z,17.65
2022-08-24T06:09:01.832Z,17.68
2022-08-24T06:11:37.996Z,17.84
2022-08-24T06:14:13.124Z,17.92
2022-08-24T06:16:46.883Z,17.99
2022-08-24T06:19:19.258Z,17.98
2022-08-24T06:21:52.097Z,18.01
2022-08-24T06:24:41.831Z,17.96
2022-08-24T06:27:21.461Z,17.96
2022-08-24T06:29:54.774Z,18.04
2022-08-24T06:32:22.631Z,18.16
2022-08-24T06:34:50.733Z,18.22
2022-08-24T06:37:18.524Z,18.21
2022-08-24T06:39:45.760Z,18.20
2022-08-24T06:42:14.162Z,18.24
2022-08-24T06:44:42.309Z,18.38
2022-08-24T06:47:09.511Z,18.54
2022-08-24T06:49:37.430Z,18.68
2022-08-24T06:52:07.297Z,18.83
2022-08-24T06:54:34.778Z,18.95
2022-08-24T06:57:01.923Z,18.93
2022-08-24T06:59:29.289Z,18.80
2022-08-24T07:01:59.254Z,18.80
2022-08-24T07:04:28.523Z,18.77
2022-08-24T07:06:56.365Z,18.74
2022-08-24T07:09:26.253Z,18.74
2022-08-24T07:11:53.434Z,18.82
2022-08-24T07:14:21.762Z,19.04
2022-08-24T07:16:49.270Z,19.19
2022-08-24T07:19:16.429Z,19.30
2022-08-24T07:21:43.565Z,19.40
2022-08-24T07:24:10.962Z,19.52
2022-08-24T07:26:39.816Z,19.43
2022-08-24T07:29:36.768Z,19.25
2022-08-24T07:32:02.811Z,19.27
2022-08-24T07:34:30.186Z,19.30
2022-08-24T07:36:57.308Z,19.50
2022-08-24T07:39:24.466Z,19.70
2022-08-24T07:42:11.577Z,19.88
2022-08-24T07:44:39.458Z,20.12
2022-08-24T07:47:27.323Z,20.21
2022-08-24T07:49:54.291Z,20.16
2022-08-24T07:52:21.545Z,20.25
2022-08-24T07:54:49.659Z,20.26
2022-08-24T07:57:16.972Z,20.33
2022-08-24T07:59:44.064Z,20.48
2022-08-24T08:02:11.856Z,20.43
2022-08-24T08:04:40.054Z,20.35
2022-08-24T08:07:07.619Z,20.20
2022-08-24T08:09:39.031Z,20.25
2022-08-24T08:12:10.201Z,20.35
2022-08-24T08:14:38.573Z,20.66
2022-08-24T08:17:07.516Z,20.73
2022-08-24T08:19:35.820Z,20.79
2022-08-24T08:22:21.656Z,21.00
2022-08-24T08:24:50.315Z,20.99
2022-08-24T08:27:17.815Z,21.12
2022-08-24T08:29:45.080Z,21.20
2022-08-24T08:32:17.022Z,21.30
2022-08-24T08:34:46.173Z,21.46
2022-08-24T08:37:15.505Z,21.67
2022-08-24T08:39:44.035Z,21.73
2022-08-24T08:43:00.053Z,21.71
2022-08-24T08:45:58.380Z,21.96
2022-08-24T08:49:48.996Z,21.98
2022-08-24T08:52:55.091Z,22.07
2022-08-24T08:55:53.397Z,22.18
2022-08-24T08:59:07.594Z,22.46
2022-08-24T09:02:31.034Z,22.46
2022-08-24T09:06:11.614Z,22.49
2022-08-24T09:09:27.677Z,22.53
2022-08-24T09:13:09.021Z,22.99
2022-08-24T09:16:01.220Z,22.84
2022-08-24T09:19:31.660Z,22.91
2022-08-24T09:22:14.980Z,22.77
2022-08-24T09:25:26.336Z,22.73
2022-08-24T09:28:21.768Z,23.00
2022-08-24T09:31:17.989Z,23.14
2022-08-24T09:34:33.184Z,23.09
2022-08-24T09:37:55.919Z,23.10
2022-08-24T09:41:04.777Z,23.01
2022-08-24T09:44:12.333Z,23.26
2022-08-24T09:47:50.525Z,23.42
2022-08-24T09:51:03.998Z,23.74
2022-08-24T09:54:33.175Z,23.85
2022-08-24T09:58:08.970Z,23.58
2022-08-24T10:01:22.409Z,23.43
2022-08-24T10:04:23.349Z,23.44
2022-08-24T10:07:53.568Z,23.46
2022-08-24T10:11:22.893Z,23.50
2022-08-24T10:14:10.893Z,23.75
2022-08-24T10:17:06.682Z,23.93
2022-08-24T10:20:11.592Z,24.23
2022-08-24T10:23:43.791Z,24.59
2022-08-24T10:26:55.895Z,24.65
2022-08-24T10:30:26.617Z,24.63
2022-08-24T10:33:37.516Z,24.78
2022-08-24T10:36:16.524Z,25.29
2022-08-24T10:39:31.841Z,25.38
2022-08-24T10:43:00.982Z,25.17
2022-08-24T10:46:16.306Z,25.22
2022-08-24T10:49:35.195Z,25.12
2022-08-24T10:52:50.914Z,25.01
2022-08-24T10:55:27.804Z,24.99
2022-08-24T10:58:43.783Z,24.83
2022-08-24T11:01:36.931Z,24.68
2022-08-24T11:04:14.015Z,24.64
2022-08-24T11:07:09.844Z,24.94
2022-08-24T11:09:56.963Z,25.22
2022-08-24T11:12:42.735Z,25.55
2022-08-24T11:15:18.736Z,25.46
2022-08-24T11:18:04.328Z,25.42
2022-08-24T11:20:44.274Z,25.07
2022-08-24T11:23:36.035Z,24.94
2022-08-24T11:26:20.133Z,25.13
2022-08-24T11:29:04.644Z,25.01
2022-08-24T11:31:43.336Z,24.77
2022-08-24T11:34:39.661Z,24.29
2022-08-24T11:37:15.976Z,23.99
2022-08-24T11:39:43.143Z,24.20
2022-08-24T11:42:44.182Z,24.55
2022-08-24T11:45:44.822Z,24.56
2022-08-24T11:49:08.752Z,24.52
2022-08-24T11:52:32.972Z,24.48
2022-08-24T11:55:45.347Z,24.24
2022-08-24T11:58:40.763Z,24.09
2022-08-24T12:01:33.170Z,23.97
2022-08-24T12:04:44.681Z,24.25
2022-08-24T12:08:08.334Z,24.38
2022-08-24T12:11:04.488Z,24.35
2022-08-24T12:14:39.984Z,24.57
2022-08-24T12:17:42.225Z,25.10
2022-08-24T12:20:49.741Z,25.27
2022-08-24T12:23:48.978Z,25.19
2022-08-24T12:26:49.868Z,25.15
2022-08-24T12:29:45.354Z,25.34
2022-08-24T12:32:39.196Z,25.53
2022-08-24T12:35:31.461Z,25.70
2022-08-24T12:38:19.459Z,25.63
2022-08-24T12:41:32.687Z,25.38
2022-08-24T12:44:16.797Z,25.38
2022-08-24T12:46:51.832Z,25.44
2022-08-24T12:49:46.221Z,25.70
2022-08-24T12:53:01.986Z,26.02
2022-08-24T12:56:12.157Z,26.00
2022-08-24T12:59:16.015Z,26.07
2022-08-24T13:01:59.932Z,26.27
2022-08-24T13:04:46.537Z,26.16
2022-08-24T13:07:48.943Z,26.02
2022-08-24T13:10:25.432Z,25.98
2022-08-24T13:13:16.599Z,25.73
2022-08-24T13:15:56.703Z,25.50
2022-08-24T13:18:53.450Z,25.47
2022-08-24T13:21:50.948Z,25.31
2022-08-24T13:24:30.208Z,25.28
2022-08-24T13:27:12.225Z,25.29
2022-08-24T13:29:54.460Z,25.30
2022-08-24T13:32:58.691Z,25.51
2022-08-24T13:35:40.685Z,26.18
2022-08-24T13:38:34.855Z,26.65
2022-08-24T13:41:37.431Z,26.84
2022-08-24T13:45:00.006Z,26.59
2022-08-24T13:48:07.642Z,26.93
2022-08-24T13:50:54.824Z,27.17
2022-08-24T13:54:19.979Z,26.96
2022-08-24T13:57:09.276Z,26.55
2022-08-24T14:00:13.043Z,26.33
2022-08-24T14:03:55.757Z,26.69
2022-08-24T14:06:47.944Z,26.97
2022-08-24T14:10:06.495Z,27.53
2022-08-24T14:12:33.426Z,27.78
2022-08-24T14:15:46.325Z,28.10
2022-08-24T14:18:54.179Z,28.11
2022-08-24T14:21:40.463Z,28.38
2022-08-24T14:24:32.497Z,28.78
2022-08-24T14:27:38.863Z,29.22
2022-08-24T14:30:17.798Z,29.48
2022-08-24T14:32:59.833Z,29.42
2022-08-24T14:35:41.373Z,29.26
2022-08-24T14:38:24.822Z,28.52
2022-08-24T14:41:06.586Z,28.78
2022-08-24T14:44:00.300Z,28.79
2022-08-24T14:47:23.123Z,28.08
2022-08-24T14:50:45.337Z,28.07
2022-08-24T14:53:57.312Z,28.32
2022-08-24T14:56:59.267Z,28.43
2022-08-24T15:00:15.352Z,29.76
2022-08-24T15:02:51.689Z,30.55
2022-08-24T15:06:16.123Z,30.65
2022-08-24T15:08:45.613Z,31.21
2022-08-24T15:11:27.348Z,31.57
2022-08-24T15:14:11.746Z,31.78
2022-08-24T15:17:02.523Z,31.48
2022-08-24T15:20:05.621Z,31.75
2022-08-24T15:23:03.339Z,32.19
2022-08-24T15:25:52.241Z,32.49
2022-08-24T15:28:32.884Z,32.55
2022-08-24T15:31:18.877Z,31.59
2022-08-24T15:34:02.327Z,31.90
2022-08-24T15:36:34.211Z,32.05
2022-08-24T15:39:06.132Z,31.82
2022-08-24T15:41:42.427Z,31.06
2022-08-24T15:44:30.416Z,31.58
2022-08-24T15:47:32.465Z,31.54
2022-08-24T15:50:27.105Z,32.21
2022-08-24T15:53:28.117Z,32.39
2022-08-24T15:55:56.198Z,32.10
2022-08-24T15:58:39.874Z,31.97
2022-08-24T16:01:28.338Z,31.46
2022-08-24T16:04:24.610Z,30.66
2022-08-24T16:06:51.752Z,29.44
2022-08-24T16:09:21.603Z,28.86
2022-08-24T16:11:57.385Z,28.33
2022-08-24T16:14:38.649Z,28.10
2022-08-24T16:17:51.074Z,27.10
2022-08-24T16:20:21.085Z,26.74
2022-08-24T16:23:00.853Z,26.54
2022-08-24T16:25:33.118Z,26.47
2022-08-24T16:28:35.569Z,26.33
2022-08-24T16:31:07.622Z,26.13
2022-08-24T16:33:45.732Z,26.08
2022-08-24T16:36:20.870Z,26.02
2022-08-24T16:38:51.752Z,25.94
2022-08-24T16:41:24.843Z,25.87
2022-08-24T16:43:52.206Z,25.76
2022-08-24T16:46:25.221Z,25.71
2022-08-24T16:48:54.257Z,25.60
2022-08-24T16:51:24.649Z,25.49
2022-08-24T16:53:52.686Z,25.46
2022-08-24T16:56:21.527Z,25.34
2022-08-24T16:58:50.232Z,25.27
2022-08-24T17:01:20.129Z,25.24
2022-08-24T17:03:47.237Z,25.21
2022-08-24T17:06:16.400Z,25.13
2022-08-24T17:08:43.494Z,25.03
2022-08-24T17:11:10.627Z,24.97
2022-08-24T17:13:49.526Z,24.92
2022-08-24T17:16:20.499Z,24.84
2022-08-24T17:18:47.942Z,24.81
2022-08-24T17:21:15.464Z,24.79
2022-08-24T17:23:43.570Z,24.82
2022-08-24T17:26:20.232Z,24.79
2022-08-24T17:28:54.555Z,24.82
2022-08-24T17:31:24.850Z,24.78
2022-08-24T17:33:53.243Z,24.68
2022-08-24T17:36:25.610Z,24.58
2022-08-24T17:38:58.481Z,24.51
2022-08-24T17:41:26.795Z,24.47
2022-08-24T17:43:55.650Z,24.34
2022-08-24T17:46:24.107Z,24.25
2022-08-24T17:48:51.560Z,24.14
2022-08-24T17:51:19.060Z,24.12
2022-08-24T17:53:45.926Z,24.04
2022-08-24T17:56:16.490Z,23.97
2022-08-24T17:59:04.415Z,23.92
2022-08-24T18:01:32.583Z,23.76
2022-08-24T18:03:59.664Z,23.62
2022-08-24T18:06:28.945Z,23.65
2022-08-24T18:08:59.662Z,23.63
2022-08-24T18:11:26.743Z,23.50
2022-08-24T18:13:54.701Z,23.39
2022-08-24T18:16:28.417Z,23.33
2022-08-24T18:18:56.888Z,23.18
2022-08-24T18:21:24.355Z,23.11
2022-08-24T18:23:53.055Z,23.04
2022-08-24T18:26:30.315Z,22.92
2022-08-24T18:29:12.909Z,22.86
2022-08-24T18:31:42.393Z,22.80
2022-08-24T18:34:19.653Z,22.67
2022-08-24T18:36:47.418Z,22.52
2022-08-24T18:39:14.727Z,22.35
2022-08-24T18:41:49.271Z,22.21
2022-08-24T18:44:26.160Z,22.08
2022-08-24T18:46:55.707Z,22.00
2022-08-24T18:49:22.885Z,21.93
2022-08-24T18:51:51.337Z,21.87
2022-08-24T18:54:25.628Z,21.85
2022-08-24T18:56:53.514Z,21.77
2022-08-24T18:59:21.803Z,21.71
2022-08-24T19:02:10.964Z,21.69
2022-08-24T19:04:47.911Z,21.69
2022-08-24T19:07:15.754Z,21.67
2022-08-24T19:09:42.864Z,21.65
2022-08-24T19:12:15.093Z,21.61
2022-08-24T19:14:46.280Z,21.59
2022-08-24T19:17:15.803Z,21.56
2022-08-24T19:19:42.885Z,21.55
2022-08-24T19:22:10.719Z,21.50
2022-08-24T19:24:39.140Z,21.44
2022-08-24T19:27:07.163Z,21.38
2022-08-24T19:29:54.594Z,21.32
2022-08-24T19:32:29.893Z,21.29
2022-08-24T19:34:59.294Z,21.30
2022-08-24T19:37:27.392Z,21.28
2022-08-24T19:39:54.511Z,21.30
2022-08-24T19:42:22.902Z,21.25
2022-08-24T19:45:13.017Z,21.23
2022-08-24T19:47:40.846Z,21.21
2022-08-24T19:50:08.724Z,21.19
2022-08-24T19:52:39.561Z,21.17
2022-08-24T19:55:11.884Z,21.13
2022-08-24T19:58:00.582Z,21.06
2022-08-24T20:00:43.023Z,21.00
2022-08-24T20:03:15.822Z,21.00
2022-08-24T20:05:43.056Z,21.05
2022-08-24T20:08:11.120Z,21.05
2022-08-24T20:10:39.401Z,21.00
2022-08-24T20:13:07.268Z,20.95
2022-08-24T20:15:35.134Z,20.90
2022-08-24T20:18:02.804Z,20.86
2022-08-24T20:20:32.841Z,20.94
2022-08-24T20:23:03.376Z,20.93
2022-08-24T20:25:31.291Z,20.88
2022-08-24T20:28:27.852Z,20.84
2022-08-24T20:30:50.324Z,20.79
2022-08-24T20:33:21.307Z,20.75
2022-08-24T20:35:48.501Z,20.69
2022-08-24T20:38:21.468Z,20.68
2022-08-24T20:40:50.477Z,20.68
2022-08-24T20:43:18.159Z,20.60
2022-08-24T20:45:45.610Z,20.61
2022-08-24T20:48:14.961Z,20.57
2022-08-24T20:50:43.633Z,20.57
2022-08-24T20:53:12.421Z,20.54
2022-08-24T20:55:42.367Z,20.49
2022-08-24T20:58:10.897Z,20.48
2022-08-24T21:00:41.005Z,20.49
2022-08-24T21:03:08.192Z,20.49
2022-08-24T21:05:35.285Z,20.49
2022-08-24T21:08:02.742Z,20.62
2022-08-24T21:10:29.818Z,20.57
2022-08-24T21:12:57.017Z,20.47
2022-08-24T21:15:24.014Z,20.40
2022-08-24T21:17:51.342Z,20.36
2022-08-24T21:20:20.844Z,20.27
2022-08-24T21:22:49.751Z,20.26
2022-08-24T21:25:17.752Z,20.22
2022-08-24T21:27:48.550Z,20.18
2022-08-24T21:30:22.876Z,20.22
2022-08-24T21:33:09.502Z,20.21
2022-08-24T21:35:38.862Z,20.15
2022-08-24T21:38:06.095Z,20.10
2022-08-24T21:40:36.244Z,20.08
2022-08-24T21:43:12.644Z,20.07
2022-08-24T21:45:42.630Z,20.08
2022-08-24T21:48:13.091Z,20.04
2022-08-24T21:50:40.220Z,20.00
2022-08-24T21:53:07.745Z,19.99
2022-08-24T21:55:36.504Z,19.94
2022-08-24T21:58:03.724Z,19.93
2022-08-24T22:00:30.833Z,19.89
2022-08-24T22:02:57.933Z,19.88
2022-08-24T22:05:24.959Z,19.86
2022-08-24T22:07:52.213Z,19.83
2022-08-24T22:10:19.683Z,19.85
2022-08-24T22:12:46.805Z,19.83
2022-08-24T22:15:16.152Z,19.82
2022-08-24T22:17:46.045Z,19.79
2022-08-24T22:20:23.503Z,19.79
2022-08-24T22:22:51.925Z,19.77
2022-08-24T22:25:19.148Z,19.73
2022-08-24T22:27:47.268Z,19.71
2022-08-24T22:30:18.357Z,19.63
2022-08-24T22:32:47.094Z,19.58
2022-08-24T22:35:14.799Z,19.51
2022-08-24T22:37:42.350Z,19.46
2022-08-24T22:40:12.649Z,19.43
2022-08-24T22:42:40.719Z,19.42
2022-08-24T22:45:09.878Z,19.41
2022-08-24T22:47:38.278Z,19.36
2022-08-24T22:50:07.605Z,19.33
2022-08-24T22:52:34.772Z,19.32
2022-08-24T22:55:01.832Z,19.32
2022-08-24T22:57:29.169Z,19.26
2022-08-24T22:59:57.816Z,19.24
2022-08-24T23:02:25.272Z,19.18
2022-08-24T23:04:54.301Z,19.16
2022-08-24T23:07:22.083Z,19.17
2022-08-24T23:09:50.134Z,19.17
2022-08-24T23:12:24.741Z,19.14
2022-08-24T23:14:53.635Z,19.08
2022-08-24T23:17:23.125Z,19.03
2022-08-24T23:20:00.670Z,19.02
2022-08-24T23:22:35.617Z,18.99
2022-08-24T23:25:08.189Z,18.98
2022-08-24T23:27:37.818Z,18.94
2022-08-24T23:30:12.317Z,18.94
2022-08-24T23:32:40.920Z,18.95
2022-08-24T23:35:09.303Z,18.95
2022-08-24T23:37:36.402Z,18.95
2022-08-24T23:40:05.027Z,18.90
2022-08-24T23:42:32.339Z,18.84
2022-08-24T23:44:59.491Z,18.80
2022-08-24T23:47:26.994Z,18.76
2022-08-24T23:49:55.533Z,18.73
2022-08-24T23:52:26.767Z,18.73
2022-08-24T23:55:15.609Z,18.71
2022-08-24T23:57:46.548Z,18.70
